Calgary, Alberta

06:00 AM MDT on Juni 25, 2017 (GMT -0600)
Harvest Hills | | Change Station

Elev 3517 ft 51.15 °N, 114.05 °W | Updated 11 minutes ago

Partly Cloudy
Växlande molnighet
45.0 °F
Feels Like 45 °F
N
0.0
Vind Växlande Vind from O/SO

Idag
High -- | Low -- °F
--% Chance of Precip.
Yesterday
High -- | Low -- °F
Precip. -- tum
Lufttryck 30.28 tum
Sikt 20.0 miles
Molnigt Few 12000 ft
Few 22000 ft
Vindavkylning 45 °F
Daggpunkt 40 °F
Luftfuktighet 84%
Rainfall 0.00 tum
Snow Depth Not available.
5:22 AM 9:55 PM
Första kvarteret, 3% visible
METAR CYYC 251100Z 19003KT 20SM FEW120 FEW220 11/07 A3026 RMK AC1CI2 AC TR SLP253
Lufttryck 30.28 tum
Sikt 20.0 miles
Molnigt Few 12000 ft
Few 22000 ft
Vindavkylning 45 °F
Daggpunkt 40 °F
Luftfuktighet 84%
Rainfall 0.00 tum
Snow Depth Not available.
5:22 AM 9:55 PM
Första kvarteret, 3% visible
METAR CYYC 251100Z 19003KT 20SM FEW120 FEW220 11/07 A3026 RMK AC1CI2 AC TR SLP253

Get Severe Weather Alerts

Thanks for signing up!

Be on the lookout for a verification email in your inbox.

You'll start receiving the daily forecast at 6 AM.

×

10-Day Weather Forecast

Almanac

Astronomi

Jun. 25, 2017 Rise Set
Actual Time
Civil Twilight
Nautical Twilight
Astronomical Twilight
Månen
Length Of Visible Light
Dagens längd
Tomorrow will be .
, % of the Moon is Illuminated

Today's Extremes

Country Highs Country Lows

Community

WunderPhotos

Category 6

Welcome to Category 6. This is the collective home for Weather Underground's featured writeups by Dr. Jeff Masters (right), Bob Henson (left), Chris Burt, and other regular contributors.

Nearby

Air Quality

  Air Quality AQ Index Pollutant
Not available.

Snödjup

Station Depth Elevation

Earthquake Activity

Stad Distance Mag. Time & Date
Minimum magnitude displayed is 2.5.

Coastal Water Temperatures

Plats Temperatur

Stations

Nearby Weather Stations

Station Location Temp Vindavkylning Daggpunkt Luftfuktighet Vind Precip. Elev Uppdaterad Type
                   

Watches & Warnings

There are currently no watches in effect.